sensor_id;sensor_type;location;lat;lon;timestamp;temperature;humidity
3816;DHT22;1923;48.154;11.536;2024-03-23T00:53:55;12.40;99.90
3816;DHT22;1923;48.154;11.536;2024-03-23T00:56:22;12.30;99.90
3816;DHT22;1923;48.154;11.536;2024-03-23T00:58:48;12.40;99.90
3816;DHT22;1923;48.154;11.536;2024-03-23T01:01:15;12.50;99.90
3816;DHT22;1923;48.154;11.536;2024-03-23T01:03:41;12.40;99.90
3816;DHT22;1923;48.154;11.536;2024-03-23T01:06:09;12.40;99.90
3816;DHT22;1923;48.154;11.536;2024-03-23T01:08:35;12.50;99.90
3816;DHT22;1923;48.154;11.536;2024-03-23T01:11:03;12.50;99.90
3816;DHT22;1923;48.154;11.536;2024-03-23T01:13:30;12.50;99.90
3816;DHT22;1923;48.154;11.536;2024-03-23T01:15:57;12.50;99.90
3816;DHT22;1923;48.154;11.536;2024-03-23T01:18:24;12.50;99.90
3816;DHT22;1923;48.154;11.536;2024-03-23T01:20:52;12.50;99.90
3816;DHT22;1923;48.154;11.536;2024-03-23T01:23:18;12.50;99.90
3816;DHT22;1923;48.154;11.536;2024-03-23T01:25:52;12.50;99.90
3816;DHT22;1923;48.154;11.536;2024-03-23T01:28:21;12.50;99.90
3816;DHT22;1923;48.154;11.536;2024-03-23T01:30:50;12.50;99.90
3816;DHT22;1923;48.154;11.536;2024-03-23T01:33:16;12.40;99.90
3816;DHT22;1923;48.154;11.536;2024-03-23T01:35:43;12.50;99.90
3816;DHT22;1923;48.154;11.536;2024-03-23T01:38:09;12.40;99.90
3816;DHT22;1923;48.154;11.536;2024-03-23T01:40:36;12.40;99.90
3816;DHT22;1923;48.154;11.536;2024-03-23T01:43:04;12.40;99.90
3816;DHT22;1923;48.154;11.536;2024-03-23T01:45:33;12.40;99.90
3816;DHT22;1923;48.154;11.536;2024-03-23T01:48:00;12.40;99.90
3816;DHT22;1923;48.154;11.536;2024-03-23T01:50:27;12.30;99.90
3816;DHT22;1923;48.154;11.536;2024-03-23T01:52:54;12.30;99.90
3816;DHT22;1923;48.154;11.536;2024-03-23T01:55:21;12.30;99.90
3816;DHT22;1923;48.154;11.536;2024-03-23T01:57:48;12.20;99.90
3816;DHT22;1923;48.154;11.536;2024-03-23T02:00:17;12.20;99.90
3816;DHT22;1923;48.154;11.536;2024-03-23T02:02:45;12.10;99.90
3816;DHT22;1923;48.154;11.536;2024-03-23T02:05:14;12.20;99.90
3816;DHT22;1923;48.154;11.536;2024-03-23T02:07:41;12.20;99.90
3816;DHT22;1923;48.154;11.536;2024-03-23T02:10:11;12.10;99.90
3816;DHT22;1923;48.154;11.536;2024-03-23T02:12:39;12.10;99.90
3816;DHT22;1923;48.154;11.536;2024-03-23T02:15:08;12.10;99.90
3816;DHT22;1923;48.154;11.536;2024-03-23T02:17:35;12.10;99.90
3816;DHT22;1923;48.154;11.536;2024-03-23T02:20:05;12.10;99.90
3816;DHT22;1923;48.154;11.536;2024-03-23T02:22:36;12.00;99.90
3816;DHT22;1923;48.154;11.536;2024-03-23T02:25:07;12.00;99.90
3816;DHT22;1923;48.154;11.536;2024-03-23T02:27:35;11.90;99.90
3816;DHT22;1923;48.154;11.536;2024-03-23T02:30:06;11.90;99.90
3816;DHT22;1923;48.154;11.536;2024-03-23T02:32:33;11.90;99.90
3816;DHT22;1923;48.154;11.536;2024-03-23T02:35:00;11.90;99.90
3816;DHT22;1923;48.154;11.536;2024-03-23T02:37:26;11.90;99.90
3816;DHT22;1923;48.154;11.536;2024-03-23T02:39:53;11.70;99.90
3816;DHT22;1923;48.154;11.536;2024-03-23T02:42:21;11.80;99.90
3816;DHT22;1923;48.154;11.536;2024-03-23T02:44:49;11.70;99.90
3816;DHT22;1923;48.154;11.536;2024-03-23T02:47:16;11.70;99.90
3816;DHT22;1923;48.154;11.536;2024-03-23T02:49:44;11.70;99.90
3816;DHT22;1923;48.154;11.536;2024-03-23T02:52:10;11.80;99.90
3816;DHT22;1923;48.154;11.536;2024-03-23T02:54:37;11.70;99.90
3816;DHT22;1923;48.154;11.536;2024-03-23T02:57:04;11.70;99.90
3816;DHT22;1923;48.154;11.536;2024-03-23T02:59:34;11.70;99.90
3816;DHT22;1923;48.154;11.536;2024-03-23T03:02:00;11.70;99.90
3816;DHT22;1923;48.154;11.536;2024-03-23T03:04:27;11.80;99.90
3816;DHT22;1923;48.154;11.536;2024-03-23T03:06:56;11.70;99.90
3816;DHT22;1923;48.154;11.536;2024-03-23T03:09:23;11.70;99.90
3816;DHT22;1923;48.154;11.536;2024-03-23T03:11:49;11.70;99.90
3816;DHT22;1923;48.154;11.536;2024-03-23T03:14:17;11.70;99.90
3816;DHT22;1923;48.154;11.536;2024-03-23T03:16:44;11.70;99.90
3816;DHT22;1923;48.154;11.536;2024-03-23T03:19:11;11.60;99.90
3816;DHT22;1923;48.154;11.536;2024-03-23T03:21:37;11.60;99.90
3816;DHT22;1923;48.154;11.536;2024-03-23T03:24:08;11.70;99.90
3816;DHT22;1923;48.154;11.536;2024-03-23T03:26:34;11.60;99.90
3816;DHT22;1923;48.154;11.536;2024-03-23T03:29:02;11.60;99.90
3816;DHT22;1923;48.154;11.536;2024-03-23T03:31:28;11.60;99.90
3816;DHT22;1923;48.154;11.536;2024-03-23T03:33:56;11.50;99.90
3816;DHT22;1923;48.154;11.536;2024-03-23T03:36:23;11.50;99.90
3816;DHT22;1923;48.154;11.536;2024-03-23T03:38:50;11.50;99.90
3816;DHT22;1923;48.154;11.536;2024-03-23T03:41:17;11.40;99.90
3816;DHT22;1923;48.154;11.536;2024-03-23T03:43:44;11.40;99.90
3816;DHT22;1923;48.154;11.536;2024-03-23T03:46:11;11.30;99.90
3816;DHT22;1923;48.154;11.536;2024-03-23T03:48:38;11.40;99.90
3816;DHT22;1923;48.154;11.536;2024-03-23T03:51:05;11.30;99.90
3816;DHT22;1923;48.154;11.536;2024-03-23T03:53:33;11.30;99.90
3816;DHT22;1923;48.154;11.536;2024-03-23T03:56:00;11.30;99.90
3816;DHT22;1923;48.154;11.536;2024-03-23T03:58:27;11.30;99.90
3816;DHT22;1923;48.154;11.536;2024-03-23T04:00:54;11.20;99.90
3816;DHT22;1923;48.154;11.536;2024-03-23T04:03:21;11.10;99.90
3816;DHT22;1923;48.154;11.536;2024-03-23T04:05:51;11.10;99.90
3816;DHT22;1923;48.154;11.536;2024-03-23T04:08:19;11.10;99.90
3816;DHT22;1923;48.154;11.536;2024-03-23T04:10:46;11.20;99.90
3816;DHT22;1923;48.154;11.536;2024-03-23T04:13:13;11.20;99.90
3816;DHT22;1923;48.154;11.536;2024-03-23T04:15:40;11.20;99.90
3816;DHT22;1923;48.154;11.536;2024-03-23T04:18:07;11.20;99.90
3816;DHT22;1923;48.154;11.536;2024-03-23T04:20:33;11.20;99.90
3816;DHT22;1923;48.154;11.536;2024-03-23T04:23:00;11.20;99.90
3816;DHT22;1923;48.154;11.536;2024-03-23T04:25:27;11.20;99.90
3816;DHT22;1923;48.154;11.536;2024-03-23T04:27:54;11.20;99.90
3816;DHT22;1923;48.154;11.536;2024-03-23T04:30:21;11.20;99.90
3816;DHT22;1923;48.154;11.536;2024-03-23T04:32:50;11.20;99.90
3816;DHT22;1923;48.154;11.536;2024-03-23T04:35:17;11.20;99.90
3816;DHT22;1923;48.154;11.536;2024-03-23T04:37:46;11.20;99.90
3816;DHT22;1923;48.154;11.536;2024-03-23T04:40:13;11.20;99.90
3816;DHT22;1923;48.154;11.536;2024-03-23T04:42:41;11.30;99.90
3816;DHT22;1923;48.154;11.536;2024-03-23T04:45:08;11.30;99.90
3816;DHT22;1923;48.154;11.536;2024-03-23T04:47:37;11.30;99.90
3816;DHT22;1923;48.154;11.536;2024-03-23T04:50:05;11.40;99.90
3816;DHT22;1923;48.154;11.536;2024-03-23T04:52:32;11.30;99.90
3816;DHT22;1923;48.154;11.536;2024-03-23T04:54:59;11.40;99.90
3816;DHT22;1923;48.154;11.536;2024-03-23T04:57:25;11.50;99.90
3816;DHT22;1923;48.154;11.536;2024-03-23T04:59:54;11.40;99.90
3816;DHT22;1923;48.154;11.536;2024-03-23T05:02:20;11.40;99.90
3816;DHT22;1923;48.154;11.536;2024-03-23T05:04:47;11.50;99.90
3816;DHT22;1923;48.154;11.536;2024-03-23T05:07:13;11.50;99.90
3816;DHT22;1923;48.154;11.536;2024-03-23T05:09:40;11.50;99.90
3816;DHT22;1923;48.154;11.536;2024-03-23T05:12:06;11.60;99.90
3816;DHT22;1923;48.154;11.536;2024-03-23T05:14:34;11.60;99.90
3816;DHT22;1923;48.154;11.536;2024-03-23T05:17:01;11.70;99.90
3816;DHT22;1923;48.154;11.536;2024-03-23T05:19:28;11.70;99.90
3816;DHT22;1923;48.154;11.536;2024-03-23T05:21:55;11.70;99.90
3816;DHT22;1923;48.154;11.536;2024-03-23T05:24:22;11.70;99.90
3816;DHT22;1923;48.154;11.536;2024-03-23T05:26:48;11.80;99.90
3816;DHT22;1923;48.154;11.536;2024-03-23T05:29:15;11.80;99.90
3816;DHT22;1923;48.154;11.536;2024-03-23T05:31:43;11.90;99.90
3816;DHT22;1923;48.154;11.536;2024-03-23T05:34:11;11.90;99.90
3816;DHT22;1923;48.154;11.536;2024-03-23T05:36:38;12.00;99.90
3816;DHT22;1923;48.154;11.536;2024-03-23T05:39:05;12.10;99.90
3816;DHT22;1923;48.154;11.536;2024-03-23T05:41:31;12.10;99.90
3816;DHT22;1923;48.154;11.536;2024-03-23T05:44:00;12.20;99.90
3816;DHT22;1923;48.154;11.536;2024-03-23T05:46:26;12.30;99.90
3816;DHT22;1923;48.154;11.536;2024-03-23T05:48:54;12.40;99.90
3816;DHT22;1923;48.154;11.536;2024-03-23T05:51:28;12.50;99.90
3816;DHT22;1923;48.154;11.536;2024-03-23T05:53:56;12.50;99.90
3816;DHT22;1923;48.154;11.536;2024-03-23T05:56:22;12.60;99.90
3816;DHT22;1923;48.154;11.536;2024-03-23T05:58:49;12.70;99.90
3816;DHT22;1923;48.154;11.536;2024-03-23T06:01:15;12.90;99.90
3816;DHT22;1923;48.154;11.536;2024-03-23T06:03:42;13.20;99.90
3816;DHT22;1923;48.154;11.536;2024-03-23T06:06:10;13.70;99.90
3816;DHT22;1923;48.154;11.536;2024-03-23T06:08:39;14.10;99.90
3816;DHT22;1923;48.154;11.536;2024-03-23T06:11:06;14.40;99.90
3816;DHT22;1923;48.154;11.536;2024-03-23T06:13:33;14.80;99.90
3816;DHT22;1923;48.154;11.536;2024-03-23T06:16:00;15.20;99.90
3816;DHT22;1923;48.154;11.536;2024-03-23T06:18:27;15.70;99.90
3816;DHT22;1923;48.154;11.536;2024-03-23T06:20:57;16.10;99.90
3816;DHT22;1923;48.154;11.536;2024-03-23T06:23:24;16.60;99.90
3816;DHT22;1923;48.154;11.536;2024-03-23T06:25:51;17.00;99.90
3816;DHT22;1923;48.154;11.536;2024-03-23T06:28:19;17.50;99.90
3816;DHT22;1923;48.154;11.536;2024-03-23T06:30:46;17.70;99.40
3816;DHT22;1923;48.154;11.536;2024-03-23T06:33:13;18.10;98.80
3816;DHT22;1923;48.154;11.536;2024-03-23T06:35:40;18.00;97.40
3816;DHT22;1923;48.154;11.536;2024-03-23T06:38:07;18.00;96.90
3816;DHT22;1923;48.154;11.536;2024-03-23T06:40:36;17.80;96.80
3816;DHT22;1923;48.154;11.536;2024-03-23T06:43:04;17.90;96.80
3816;DHT22;1923;48.154;11.536;2024-03-23T06:45:31;18.00;96.50
3816;DHT22;1923;48.154;11.536;2024-03-23T06:47:58;18.00;96.10
3816;DHT22;1923;48.154;11.536;2024-03-23T06:50:25;18.10;95.90
3816;DHT22;1923;48.154;11.536;2024-03-23T06:52:52;18.20;96.00
3816;DHT22;1923;48.154;11.536;2024-03-23T06:55:18;18.40;96.40
3816;DHT22;1923;48.154;11.536;2024-03-23T06:57:45;18.70;96.40
3816;DHT22;1923;48.154;11.536;2024-03-23T07:00:14;19.00;95.00
3816;DHT22;1923;48.154;11.536;2024-03-23T07:02:41;19.40;95.10
3816;DHT22;1923;48.154;11.536;2024-03-23T07:05:08;19.80;94.60
3816;DHT22;1923;48.154;11.536;2024-03-23T07:07:35;20.20;94.40
3816;DHT22;1923;48.154;11.536;2024-03-23T07:10:01;20.00;93.60
3816;DHT22;1923;48.154;11.536;2024-03-23T07:12:28;19.80;94.00
3816;DHT22;1923;48.154;11.536;2024-03-23T07:14:54;19.60;94.20
3816;DHT22;1923;48.154;11.536;2024-03-23T07:17:22;19.50;94.40
3816;DHT22;1923;48.154;11.536;2024-03-23T07:19:52;19.30;94.50
3816;DHT22;1923;48.154;11.536;2024-03-23T07:22:19;19.20;94.90
3816;DHT22;1923;48.154;11.536;2024-03-23T07:24:46;19.10;95.20
3816;DHT22;1923;48.154;11.536;2024-03-23T07:27:13;19.00;95.40
3816;DHT22;1923;48.154;11.536;2024-03-23T07:29:39;18.80;95.20
3816;DHT22;1923;48.154;11.536;2024-03-23T07:32:06;18.80;95.00
3816;DHT22;1923;48.154;11.536;2024-03-23T07:34:34;18.60;95.50
3816;DHT22;1923;48.154;11.536;2024-03-23T07:37:01;18.40;95.70
3816;DHT22;1923;48.154;11.536;2024-03-23T07:39:27;18.40;95.80
3816;DHT22;1923;48.154;11.536;2024-03-23T07:41:54;18.20;96.10
3816;DHT22;1923;48.154;11.536;2024-03-23T07:44:20;18.00;98.80
3816;DHT22;1923;48.154;11.536;2024-03-23T07:46:49;17.50;99.90
3816;DHT22;1923;48.154;11.536;2024-03-23T07:49:15;17.00;99.90
3816;DHT22;1923;48.154;11.536;2024-03-23T07:51:44;16.40;99.90
3816;DHT22;1923;48.154;11.536;2024-03-23T07:54:10;16.00;99.90
3816;DHT22;1923;48.154;11.536;2024-03-23T07:56:37;15.50;99.90
3816;DHT22;1923;48.154;11.536;2024-03-23T07:59:03;15.00;99.90
3816;DHT22;1923;48.154;11.536;2024-03-23T08:01:30;14.60;99.90
3816;DHT22;1923;48.154;11.536;2024-03-23T08:03:57;14.30;99.90
3816;DHT22;1923;48.154;11.536;2024-03-23T08:06:24;14.00;99.90
3816;DHT22;1923;48.154;11.536;2024-03-23T08:08:53;13.70;99.90
3816;DHT22;1923;48.154;11.536;2024-03-23T08:11:28;13.50;99.90
3816;DHT22;1923;48.154;11.536;2024-03-23T08:13:56;13.20;99.90
3816;DHT22;1923;48.154;11.536;2024-03-23T08:16:24;13.00;99.90
3816;DHT22;1923;48.154;11.536;2024-03-23T08:18:51;12.80;99.90
3816;DHT22;1923;48.154;11.536;2024-03-23T08:21:19;12.70;99.90
3816;DHT22;1923;48.154;11.536;2024-03-23T08:23:45;12.60;99.90
3816;DHT22;1923;48.154;11.536;2024-03-23T08:26:16;12.50;99.90
3816;DHT22;1923;48.154;11.536;2024-03-23T08:28:43;12.30;99.90
3816;DHT22;1923;48.154;11.536;2024-03-23T08:31:17;12.20;99.90
3816;DHT22;1923;48.154;11.536;2024-03-23T08:33:46;12.10;99.90
3816;DHT22;1923;48.154;11.536;2024-03-23T08:36:13;11.80;99.90
3816;DHT22;1923;48.154;11.536;2024-03-23T08:38:40;11.50;99.90
3816;DHT22;1923;48.154;11.536;2024-03-23T08:41:08;11.30;99.90
3816;DHT22;1923;48.154;11.536;2024-03-23T08:43:37;11.20;99.90
3816;DHT22;1923;48.154;11.536;2024-03-23T08:46:05;10.90;99.90
3816;DHT22;1923;48.154;11.536;2024-03-23T08:49:00;10.80;99.90
3816;DHT22;1923;48.154;11.536;2024-03-23T08:51:31;10.70;99.90
3816;DHT22;1923;48.154;11.536;2024-03-23T08:53:57;10.60;99.90
3816;DHT22;1923;48.154;11.536;2024-03-23T08:56:24;10.50;99.90
3816;DHT22;1923;48.154;11.536;2024-03-23T08:58:52;10.50;99.90
3816;DHT22;1923;48.154;11.536;2024-03-23T09:01:19;10.60;99.90
3816;DHT22;1923;48.154;11.536;2024-03-23T09:03:45;10.70;99.90
3816;DHT22;1923;48.154;11.536;2024-03-23T09:06:13;10.70;99.90
3816;DHT22;1923;48.154;11.536;2024-03-23T09:08:40;10.80;99.90
3816;DHT22;1923;48.154;11.536;2024-03-23T09:11:08;10.70;99.90
3816;DHT22;1923;48.154;11.536;2024-03-23T09:16:55;10.70;99.90
3816;DHT22;1923;48.154;11.536;2024-03-23T09:19:22;10.70;99.90
3816;DHT22;1923;48.154;11.536;2024-03-23T09:21:49;10.70;99.90
3816;DHT22;1923;48.154;11.536;2024-03-23T09:24:18;10.80;99.90
3816;DHT22;1923;48.154;11.536;2024-03-23T09:26:44;10.90;99.90
3816;DHT22;1923;48.154;11.536;2024-03-23T09:29:11;10.90;99.90
3816;DHT22;1923;48.154;11.536;2024-03-23T09:31:37;11.00;99.90
3816;DHT22;1923;48.154;11.536;2024-03-23T09:34:05;11.00;99.90
3816;DHT22;1923;48.154;11.536;2024-03-23T09:36:31;11.00;99.90
3816;DHT22;1923;48.154;11.536;2024-03-23T09:38:59;10.90;99.90
3816;DHT22;1923;48.154;11.536;2024-03-23T09:41:25;10.90;99.90
3816;DHT22;1923;48.154;11.536;2024-03-23T09:43:52;10.80;99.90
3816;DHT22;1923;48.154;11.536;2024-03-23T09:46:19;10.80;99.90
3816;DHT22;1923;48.154;11.536;2024-03-23T09:48:46;10.70;99.90
3816;DHT22;1923;48.154;11.536;2024-03-23T09:51:14;10.60;99.90
3816;DHT22;1923;48.154;11.536;2024-03-23T09:53:41;10.60;99.90
3816;DHT22;1923;48.154;11.536;2024-03-23T09:56:08;10.60;99.90
3816;DHT22;1923;48.154;11.536;2024-03-23T09:58:35;10.60;99.90
3816;DHT22;1923;48.154;11.536;2024-03-23T10:01:02;10.60;99.90
3816;DHT22;1923;48.154;11.536;2024-03-23T10:03:30;10.60;99.90
3816;DHT22;1923;48.154;11.536;2024-03-23T10:06:01;10.50;99.90
3816;DHT22;1923;48.154;11.536;2024-03-23T10:08:30;10.40;99.90
3816;DHT22;1923;48.154;11.536;2024-03-23T10:10:56;10.20;99.90
3816;DHT22;1923;48.154;11.536;2024-03-23T10:13:24;10.10;99.90
3816;DHT22;1923;48.154;11.536;2024-03-23T10:15:55;10.00;99.90
3816;DHT22;1923;48.154;11.536;2024-03-23T10:18:23;10.00;99.90
3816;DHT22;1923;48.154;11.536;2024-03-23T10:20:52;9.90;99.90
3816;DHT22;1923;48.154;11.536;2024-03-23T10:23:34;9.90;99.90
3816;DHT22;1923;48.154;11.536;2024-03-23T10:26:12;10.00;99.90
3816;DHT22;1923;48.154;11.536;2024-03-23T10:28:54;10.10;99.90
3816;DHT22;1923;48.154;11.536;2024-03-23T10:31:21;10.10;99.90
3816;DHT22;1923;48.154;11.536;2024-03-23T10:33:48;10.10;99.90
3816;DHT22;1923;48.154;11.536;2024-03-23T10:36:15;10.20;99.90
3816;DHT22;1923;48.154;11.536;2024-03-23T10:38:44;10.30;99.90
3816;DHT22;1923;48.154;11.536;2024-03-23T10:41:11;10.30;99.90
3816;DHT22;1923;48.154;11.536;2024-03-23T10:43:38;10.30;99.90
3816;DHT22;1923;48.154;11.536;2024-03-23T10:46:05;10.30;99.90
3816;DHT22;1923;48.154;11.536;2024-03-23T10:48:32;10.30;99.90
3816;DHT22;1923;48.154;11.536;2024-03-23T10:50:58;10.30;99.90
3816;DHT22;1923;48.154;11.536;2024-03-23T10:53:27;10.30;99.90
3816;DHT22;1923;48.154;11.536;2024-03-23T10:55:56;10.20;99.90
3816;DHT22;1923;48.154;11.536;2024-03-23T10:58:26;10.30;99.90
3816;DHT22;1923;48.154;11.536;2024-03-23T11:00:53;10.30;99.90
3816;DHT22;1923;48.154;11.536;2024-03-23T11:03:31;10.30;99.90
3816;DHT22;1923;48.154;11.536;2024-03-23T11:05:58;10.40;99.90
3816;DHT22;1923;48.154;11.536;2024-03-23T11:08:36;10.50;99.90
3816;DHT22;1923;48.154;11.536;2024-03-23T11:11:17;10.50;99.90
3816;DHT22;1923;48.154;11.536;2024-03-23T11:13:46;10.50;99.90
3816;DHT22;1923;48.154;11.536;2024-03-23T11:16:14;10.60;99.90
3816;DHT22;1923;48.154;11.536;2024-03-23T11:18:42;10.70;99.90
3816;DHT22;1923;48.154;11.536;2024-03-23T11:21:09;10.60;99.90
3816;DHT22;1923;48.154;11.536;2024-03-23T11:23:37;10.70;99.90
3816;DHT22;1923;48.154;11.536;2024-03-23T11:26:07;10.70;99.90
3816;DHT22;1923;48.154;11.536;2024-03-23T11:28:39;10.80;99.90
3816;DHT22;1923;48.154;11.536;2024-03-23T11:31:09;10.80;99.90
3816;DHT22;1923;48.154;11.536;2024-03-23T11:33:37;10.80;99.90
3816;DHT22;1923;48.154;11.536;2024-03-23T11:36:04;10.90;99.90
3816;DHT22;1923;48.154;11.536;2024-03-23T11:38:36;10.90;99.90
3816;DHT22;1923;48.154;11.536;2024-03-23T11:41:03;10.90;99.90
3816;DHT22;1923;48.154;11.536;2024-03-23T11:43:31;11.00;99.90
3816;DHT22;1923;48.154;11.536;2024-03-23T11:45:58;11.00;99.90
3816;DHT22;1923;48.154;11.536;2024-03-23T11:48:28;11.10;99.90
3816;DHT22;1923;48.154;11.536;2024-03-23T11:50:56;11.10;99.90
3816;DHT22;1923;48.154;11.536;2024-03-23T11:53:25;11.20;99.90
3816;DHT22;1923;48.154;11.536;2024-03-23T11:55:55;11.30;99.90
3816;DHT22;1923;48.154;11.536;2024-03-23T11:58:23;11.40;99.90
3816;DHT22;1923;48.154;11.536;2024-03-23T12:00:51;11.50;99.90
3816;DHT22;1923;48.154;11.536;2024-03-23T12:03:20;11.60;99.90
3816;DHT22;1923;48.154;11.536;2024-03-23T12:05:49;11.60;99.90
3816;DHT22;1923;48.154;11.536;2024-03-23T12:08:23;11.50;99.90
3816;DHT22;1923;48.154;11.536;2024-03-23T12:10:51;11.40;99.90
3816;DHT22;1923;48.154;11.536;2024-03-23T12:13:20;11.20;99.90
3816;DHT22;1923;48.154;11.536;2024-03-23T12:15:47;11.10;99.90
3816;DHT22;1923;48.154;11.536;2024-03-23T12:18:14;11.00;99.90
3816;DHT22;1923;48.154;11.536;2024-03-23T12:20:41;11.00;99.90
3816;DHT22;1923;48.154;11.536;2024-03-23T12:23:09;11.10;99.90
3816;DHT22;1923;48.154;11.536;2024-03-23T12:25:38;11.20;99.90
3816;DHT22;1923;48.154;11.536;2024-03-23T12:28:06;11.20;99.90
3816;DHT22;1923;48.154;11.536;2024-03-23T12:30:34;11.20;99.90
3816;DHT22;1923;48.154;11.536;2024-03-23T12:33:01;11.00;99.90
3816;DHT22;1923;48.154;11.536;2024-03-23T12:35:27;11.00;99.90
3816;DHT22;1923;48.154;11.536;2024-03-23T12:37:56;11.00;99.90
3816;DHT22;1923;48.154;11.536;2024-03-23T12:40:22;10.90;99.90
3816;DHT22;1923;48.154;11.536;2024-03-23T12:42:49;11.10;99.90
3816;DHT22;1923;48.154;11.536;2024-03-23T12:45:16;11.10;99.90
3816;DHT22;1923;48.154;11.536;2024-03-23T12:47:43;11.20;99.90
3816;DHT22;1923;48.154;11.536;2024-03-23T12:50:10;11.20;99.90
3816;DHT22;1923;48.154;11.536;2024-03-23T12:52:37;11.30;99.90
3816;DHT22;1923;48.154;11.536;2024-03-23T12:55:05;11.30;99.90
3816;DHT22;1923;48.154;11.536;2024-03-23T12:57:33;11.40;99.90
3816;DHT22;1923;48.154;11.536;2024-03-23T12:59:59;11.60;99.90
3816;DHT22;1923;48.154;11.536;2024-03-23T13:02:26;11.80;99.90
3816;DHT22;1923;48.154;11.536;2024-03-23T13:04:53;11.90;99.90
3816;DHT22;1923;48.154;11.536;2024-03-23T13:07:21;12.10;99.90
3816;DHT22;1923;48.154;11.536;2024-03-23T13:09:50;12.20;99.90
3816;DHT22;1923;48.154;11.536;2024-03-23T13:12:19;12.20;99.90
3816;DHT22;1923;48.154;11.536;2024-03-23T13:14:46;12.40;99.90
3816;DHT22;1923;48.154;11.536;2024-03-23T13:17:13;12.30;99.90
3816;DHT22;1923;48.154;11.536;2024-03-23T13:19:39;12.50;99.90
3816;DHT22;1923;48.154;11.536;2024-03-23T13:22:07;12.50;99.90
3816;DHT22;1923;48.154;11.536;2024-03-23T13:24:34;12.60;99.90
3816;DHT22;1923;48.154;11.536;2024-03-23T13:27:01;12.60;99.90
3816;DHT22;1923;48.154;11.536;2024-03-23T13:29:28;12.70;99.90
3816;DHT22;1923;48.154;11.536;2024-03-23T13:31:56;12.70;99.90
3816;DHT22;1923;48.154;11.536;2024-03-23T13:34:22;12.60;99.90
3816;DHT22;1923;48.154;11.536;2024-03-23T13:36:49;12.50;99.90
3816;DHT22;1923;48.154;11.536;2024-03-23T13:39:15;12.50;99.90
3816;DHT22;1923;48.154;11.536;2024-03-23T13:41:44;12.40;99.90
3816;DHT22;1923;48.154;11.536;2024-03-23T13:44:11;12.30;99.90
3816;DHT22;1923;48.154;11.536;2024-03-23T13:46:40;12.20;99.90
3816;DHT22;1923;48.154;11.536;2024-03-23T13:49:24;12.20;99.90
3816;DHT22;1923;48.154;11.536;2024-03-23T13:51:52;12.10;99.90
3816;DHT22;1923;48.154;11.536;2024-03-23T13:54:18;11.40;99.90
3816;DHT22;1923;48.154;11.536;2024-03-23T13:56:47;10.60;99.90
3816;DHT22;1923;48.154;11.536;2024-03-23T13:59:13;10.10;99.90
3816;DHT22;1923;48.154;11.536;2024-03-23T14:01:41;9.60;99.90
3816;DHT22;1923;48.154;11.536;2024-03-23T14:04:08;9.30;99.90
3816;DHT22;1923;48.154;11.536;2024-03-23T14:06:35;9.00;99.90
3816;DHT22;1923;48.154;11.536;2024-03-23T14:09:01;8.90;99.90
3816;DHT22;1923;48.154;11.536;2024-03-23T14:11:29;8.80;99.90
3816;DHT22;1923;48.154;11.536;2024-03-23T14:13:55;8.80;99.90
3816;DHT22;1923;48.154;11.536;2024-03-23T14:16:22;8.90;99.90
3816;DHT22;1923;48.154;11.536;2024-03-23T14:18:50;8.80;99.90
3816;DHT22;1923;48.154;11.536;2024-03-23T14:21:17;9.00;99.90
3816;DHT22;1923;48.154;11.536;2024-03-23T14:23:44;8.90;99.90
3816;DHT22;1923;48.154;11.536;2024-03-23T14:26:11;9.00;99.90
3816;DHT22;1923;48.154;11.536;2024-03-23T14:28:37;9.10;99.90
3816;DHT22;1923;48.154;11.536;2024-03-23T14:31:05;9.10;99.90
3816;DHT22;1923;48.154;11.536;2024-03-23T14:33:36;9.20;99.90
3816;DHT22;1923;48.154;11.536;2024-03-23T14:36:06;9.10;99.90
3816;DHT22;1923;48.154;11.536;2024-03-23T14:38:32;9.00;99.90
3816;DHT22;1923;48.154;11.536;2024-03-23T14:40:59;8.90;99.90
3816;DHT22;1923;48.154;11.536;2024-03-23T14:43:25;8.80;99.90
3816;DHT22;1923;48.154;11.536;2024-03-23T14:46:09;8.70;99.90
3816;DHT22;1923;48.154;11.536;2024-03-23T14:48:36;8.70;99.90
3816;DHT22;1923;48.154;11.536;2024-03-23T14:51:05;8.60;99.90
3816;DHT22;1923;48.154;11.536;2024-03-23T14:53:32;8.70;99.90
3816;DHT22;1923;48.154;11.536;2024-03-23T14:55:59;8.70;99.90
3816;DHT22;1923;48.154;11.536;2024-03-23T14:58:26;8.70;99.90
3816;DHT22;1923;48.154;11.536;2024-03-23T15:00:59;8.80;99.90
3816;DHT22;1923;48.154;11.536;2024-03-23T15:03:26;8.80;99.90
3816;DHT22;1923;48.154;11.536;2024-03-23T15:05:54;8.80;99.90
3816;DHT22;1923;48.154;11.536;2024-03-23T15:08:22;8.90;99.90
3816;DHT22;1923;48.154;11.536;2024-03-23T15:10:49;8.90;99.90
3816;DHT22;1923;48.154;11.536;2024-03-23T15:13:16;8.80;99.90
3816;DHT22;1923;48.154;11.536;2024-03-23T15:15:43;8.80;99.90
3816;DHT22;1923;48.154;11.536;2024-03-23T15:18:11;8.70;99.90
3816;DHT22;1923;48.154;11.536;2024-03-23T15:20:40;8.60;99.90
3816;DHT22;1923;48.154;11.536;2024-03-23T15:23:06;8.60;99.90
3816;DHT22;1923;48.154;11.536;2024-03-23T15:25:35;8.60;99.90
3816;DHT22;1923;48.154;11.536;2024-03-23T15:28:01;8.50;99.90
3816;DHT22;1923;48.154;11.536;2024-03-23T15:30:28;8.50;99.90
3816;DHT22;1923;48.154;11.536;2024-03-23T15:32:54;8.60;99.90
3816;DHT22;1923;48.154;11.536;2024-03-23T15:35:21;8.70;99.90
3816;DHT22;1923;48.154;11.536;2024-03-23T15:37:49;8.70;99.90
3816;DHT22;1923;48.154;11.536;2024-03-23T15:40:17;8.70;99.90
3816;DHT22;1923;48.154;11.536;2024-03-23T15:42:45;8.90;99.90
3816;DHT22;1923;48.154;11.536;2024-03-23T15:45:12;8.90;99.90
3816;DHT22;1923;48.154;11.536;2024-03-23T15:47:38;8.90;99.90
3816;DHT22;1923;48.154;11.536;2024-03-23T15:50:06;8.90;99.90
3816;DHT22;1923;48.154;11.536;2024-03-23T15:52:35;9.00;99.90
3816;DHT22;1923;48.154;11.536;2024-03-23T15:55:02;9.00;99.90
3816;DHT22;1923;48.154;11.536;2024-03-23T15:57:33;8.90;99.90
3816;DHT22;1923;48.154;11.536;2024-03-23T16:00:01;9.00;99.90
3816;DHT22;1923;48.154;11.536;2024-03-23T16:02:28;9.00;99.90
3816;DHT22;1923;48.154;11.536;2024-03-23T16:04:55;8.90;99.90
3816;DHT22;1923;48.154;11.536;2024-03-23T16:07:22;9.00;99.90
3816;DHT22;1923;48.154;11.536;2024-03-23T16:09:49;9.00;99.90
3816;DHT22;1923;48.154;11.536;2024-03-23T16:12:15;9.10;99.90
3816;DHT22;1923;48.154;11.536;2024-03-23T16:14:42;9.00;99.90
3816;DHT22;1923;48.154;11.536;2024-03-23T16:17:10;8.90;99.90
3816;DHT22;1923;48.154;11.536;2024-03-23T16:19:37;8.80;99.90
3816;DHT22;1923;48.154;11.536;2024-03-23T16:22:03;9.00;99.90
3816;DHT22;1923;48.154;11.536;2024-03-23T16:24:30;8.80;99.90
3816;DHT22;1923;48.154;11.536;2024-03-23T16:26:56;8.80;99.90
3816;DHT22;1923;48.154;11.536;2024-03-23T16:29:23;8.90;99.90
3816;DHT22;1923;48.154;11.536;2024-03-23T16:31:50;8.90;99.90
3816;DHT22;1923;48.154;11.536;2024-03-23T16:34:18;8.80;99.90
3816;DHT22;1923;48.154;11.536;2024-03-23T16:36:44;8.80;99.90
3816;DHT22;1923;48.154;11.536;2024-03-23T16:39:11;8.80;99.90
3816;DHT22;1923;48.154;11.536;2024-03-23T16:41:37;8.80;99.90
3816;DHT22;1923;48.154;11.536;2024-03-23T16:44:04;8.90;99.90
3816;DHT22;1923;48.154;11.536;2024-03-23T16:46:31;8.80;99.90
3816;DHT22;1923;48.154;11.536;2024-03-23T16:48:58;8.70;99.90